Create Tblcommutelog Verified Points Advance Search
| # | Trip ID | Id Commuter | Trip Date | Trip Num | Current Lat | Current Lng | Delta Distance | Current Time | Activity | Activity Confidence | Current Speed | |
|---|---|---|---|---|---|---|---|---|---|---|---|---|
| 73581 | 250708_786015_16514412_0610 | 786015 | (not set) | (not set) | 39.420352 | -76.4043934 | 7.1172 | 2025-07-08 11:09:10.508 | in_vehicle | 100 | 12.633329458993 | |
| 73582 | 250708_786015_16514412_0610 | 786015 | (not set) | (not set) | 39.4122741 | -76.4119826 | 7.818 | 2025-07-08 11:09:10.51 | in_vehicle | 100 | 12.834497125538 | |
| 73583 | 250708_786015_16514412_0610 | 786015 | (not set) | (not set) | 39.4076546 | -76.4179235 | 8.2683 | 2025-07-08 11:09:10.511 | in_vehicle | 100 | 13.415648162222 | |
| 73584 | 250708_786015_16514412_0610 | 786015 | (not set) | (not set) | 39.4003162 | -76.4277868 | 8.9997 | 2025-07-08 11:09:10.558 | in_vehicle | 100 | 14.653946909618 | |
| 73585 | 250708_786015_16514412_0610 | 786015 | (not set) | (not set) | 39.4053441 | -76.4210285 | 8.4986 | 2025-07-08 11:09:10.559 | in_vehicle | 100 | 13.353062665963 | |
| 73586 | 250708_786015_16514412_0610 | 786015 | (not set) | (not set) | 39.402976 | -76.4242243 | 8.735 | 2025-07-08 11:09:10.56 | in_vehicle | 100 | 14.770177116954 | |
| 73587 | 250708_786015_16514412_0610 | 786015 | (not set) | (not set) | 39.3973114 | -76.4309421 | 9.2671 | 2025-07-08 11:09:10.561 | in_vehicle | 100 | 14.801469865084 | |
| 73588 | 250708_786015_16514412_0610 | 786015 | (not set) | (not set) | 39.3824982 | -76.4456154 | 10.5573 | 2025-07-08 11:09:10.598 | in_vehicle | 100 | 16.866791241607 | |
| 73589 | 250708_786015_16514412_0610 | 786015 | (not set) | (not set) | 39.3852816 | -76.442523 | 10.3038 | 2025-07-08 11:09:10.603 | in_vehicle | 100 | 16.562804545495 | |
| 73590 | 250708_786015_16514412_0610 | 786015 | (not set) | (not set) | 39.3728237 | -76.4559471 | 11.4242 | 2025-07-08 11:09:10.604 | in_vehicle | 100 | 17.85474800397 | |
| 73591 | 250708_786015_16514412_0610 | 786015 | (not set) | (not set) | 39.3680595 | -76.4647015 | 11.9971 | 2025-07-08 11:09:10.638 | in_vehicle | 100 | 15.919068012553 | |
| 73592 | 250708_786015_16514412_0610 | 786015 | (not set) | (not set) | 39.370272 | -76.4603 | 11.7163 | 2025-07-08 11:09:10.638 | in_vehicle | 100 | 17.331712070954 | |
| 73593 | 250708_786015_16514412_0610 | 786015 | (not set) | (not set) | 39.3660169 | -76.4687776 | 12.2569 | 2025-07-08 11:09:10.642 | in_vehicle | 100 | 15.691077990469 | |
| 73594 | 250708_786015_16514412_0610 | 786015 | (not set) | (not set) | 39.3616189 | -76.476908 | 12.7879 | 2025-07-08 11:09:10.642 | in_vehicle | 100 | 16.942787915635 | |
| 73595 | 250708_786015_16514412_0610 | 786015 | (not set) | (not set) | 39.3638961 | -76.4730207 | 12.5272 | 2025-07-08 11:09:10.644 | in_vehicle | 100 | 16.459985515928 | |
| 73596 | 250708_786015_16514412_0610 | 786015 | (not set) | (not set) | 39.3548053 | -76.4896165 | 13.6159 | 2025-07-08 11:09:10.675 | in_vehicle | 100 | 16.182821175356 | |
| 73597 | 250708_786015_16514412_0610 | 786015 | (not set) | (not set) | 39.3507002 | -76.4977708 | 14.1364 | 2025-07-08 11:09:10.701 | in_vehicle | 100 | 16.053179790249 | |
| 73598 | 250708_786015_16514412_0610 | 786015 | (not set) | (not set) | 39.3486093 | -76.5019537 | 14.4028 | 2025-07-08 11:09:10.701 | in_vehicle | 100 | 15.936949582912 | |
| 73599 | 250708_786015_16514412_0610 | 786015 | (not set) | (not set) | 39.3317814 | -76.5206872 | 15.9796 | 2025-07-08 11:09:10.738 | in_vehicle | 100 | 15.708959560829 | |
| 73600 | 250708_786015_16514412_0610 | 786015 | (not set) | (not set) | 39.3348306 | -76.5177883 | 15.7181 | 2025-07-08 11:09:10.738 | in_vehicle | 100 | 15.396032079537 |